createdAt,value
2019-02-15T00:00:06.003Z,2.70
2019-02-15T00:02:35.332Z,2.40
2019-02-15T00:05:04.664Z,2.23
2019-02-15T00:07:34.096Z,1.87
2019-02-15T00:10:03.436Z,2.00
2019-02-15T00:12:32.823Z,2.17
2019-02-15T00:15:02.269Z,1.87
2019-02-15T00:18:08.857Z,2.40
2019-02-15T00:20:44.623Z,2.30
2019-02-15T00:23:13.956Z,2.63
2019-02-15T00:25:43.272Z,2.23
2019-02-15T00:28:12.714Z,2.40
2019-02-15T00:30:42.117Z,2.53
2019-02-15T00:33:11.475Z,1.97
2019-02-15T00:35:40.830Z,2.10
2019-02-15T00:38:10.236Z,2.20
2019-02-15T00:40:39.663Z,2.43
2019-02-15T00:43:09.062Z,2.50
2019-02-15T00:45:47.163Z,2.37
2019-02-15T00:48:18.817Z,2.57
2019-02-15T00:51:00.027Z,2.23
2019-02-15T00:53:46.995Z,2.07
2019-02-15T00:56:35.395Z,2.03
2019-02-15T00:59:18.612Z,2.50
2019-02-15T01:02:09.961Z,2.40
2019-02-15T01:05:01.151Z,2.30
2019-02-15T01:07:44.678Z,2.00
2019-02-15T01:10:23.386Z,2.53
2019-02-15T01:12:57.166Z,2.10
2019-02-15T01:15:26.512Z,2.53
2019-02-15T01:17:56.228Z,2.70
2019-02-15T01:20:25.567Z,2.27
2019-02-15T01:22:54.903Z,1.97
2019-02-15T01:25:25.760Z,2.17
2019-02-15T01:28:06.212Z,2.60
2019-02-15T01:30:53.128Z,2.33
2019-02-15T01:33:43.625Z,2.73
2019-02-15T01:36:40.809Z,2.60
2019-02-15T01:39:22.748Z,2.13
2019-02-15T01:42:09.608Z,2.30
2019-02-15T01:44:44.732Z,1.73
2019-02-15T01:47:17.881Z,2.10
2019-02-15T01:49:47.248Z,2.27
2019-02-15T01:52:16.592Z,2.30
2019-02-15T01:54:45.964Z,2.53
2019-02-15T01:57:15.283Z,2.10
2019-02-15T01:59:44.594Z,2.20
2019-02-15T02:02:13.935Z,1.70
2019-02-15T02:04:43.404Z,1.87
2019-02-15T02:07:12.796Z,2.50
2019-02-15T02:09:42.196Z,2.03
2019-02-15T02:12:11.671Z,2.03
2019-02-15T02:14:41.008Z,2.13
2019-02-15T02:17:10.367Z,2.10
2019-02-15T02:19:39.720Z,1.93
2019-02-15T02:22:09.097Z,1.93
2019-02-15T02:24:38.515Z,1.80
2019-02-15T02:27:07.884Z,2.00
2019-02-15T02:29:37.347Z,2.30
2019-02-15T02:32:06.750Z,1.90
2019-02-15T02:34:36.101Z,1.80
2019-02-15T02:37:05.659Z,2.03
2019-02-15T02:39:35.025Z,2.17
2019-02-15T02:42:04.397Z,2.00
2019-02-15T02:44:33.974Z,2.07
2019-02-15T02:47:03.345Z,2.57
2019-02-15T02:49:32.687Z,2.23
2019-02-15T02:52:02.084Z,2.10
2019-02-15T02:54:31.423Z,2.23
2019-02-15T02:57:00.744Z,2.37
2019-02-15T02:59:30.078Z,2.27
2019-02-15T03:01:59.584Z,2.03
2019-02-15T03:04:28.893Z,2.20
2019-02-15T03:06:58.294Z,1.90
2019-02-15T03:09:27.637Z,2.13
2019-02-15T03:11:57.007Z,2.20
2019-02-15T03:14:26.379Z,2.40
2019-02-15T03:16:55.779Z,2.40
2019-02-15T03:19:25.232Z,2.50
2019-02-15T03:21:54.553Z,2.47
2019-02-15T03:24:23.970Z,2.00
2019-02-15T03:26:53.396Z,2.10
2019-02-15T03:29:22.839Z,2.60
2019-02-15T03:31:52.207Z,2.33
2019-02-15T03:34:21.631Z,2.30
2019-02-15T03:37:05.795Z,2.20
2019-02-15T03:39:52.423Z,2.17
2019-02-15T03:42:21.730Z,1.63
2019-02-15T03:44:51.096Z,1.93
2019-02-15T03:47:23.265Z,2.30
2019-02-15T03:49:52.622Z,2.17
2019-02-15T03:52:21.983Z,2.70
2019-02-15T03:54:51.374Z,1.93
2019-02-15T03:57:20.716Z,1.83
2019-02-15T03:59:50.144Z,2.20
2019-02-15T04:02:19.468Z,2.20
2019-02-15T04:04:48.834Z,1.70
2019-02-15T04:07:18.190Z,2.00
2019-02-15T04:09:47.602Z,1.87
2019-02-15T04:12:16.969Z,2.10
2019-02-15T04:14:46.512Z,1.90
2019-02-15T04:17:15.944Z,2.20
2019-02-15T04:19:45.398Z,2.00
2019-02-15T04:22:14.714Z,2.30
2019-02-15T04:24:44.159Z,2.00
2019-02-15T04:27:13.592Z,2.60
2019-02-15T04:29:42.922Z,3.00
2019-02-15T04:32:12.262Z,2.00
2019-02-15T04:34:41.632Z,2.10
2019-02-15T04:37:11.101Z,2.20
2019-02-15T04:39:40.457Z,1.87
2019-02-15T04:42:09.863Z,2.43
2019-02-15T04:44:42.893Z,2.53
2019-02-15T04:47:10.311Z,2.07
2019-02-15T04:49:39.713Z,2.73
2019-02-15T04:52:09.236Z,2.33
2019-02-15T04:54:38.613Z,2.00
2019-02-15T04:57:08.054Z,2.63
2019-02-15T04:59:38.595Z,1.97
2019-02-15T05:02:07.912Z,2.40
2019-02-15T05:04:37.289Z,2.60
2019-02-15T05:07:06.660Z,2.43
2019-02-15T05:09:36.021Z,2.73
2019-02-15T05:12:05.395Z,2.67
2019-02-15T05:14:34.738Z,2.70
2019-02-15T05:17:04.091Z,2.70
2019-02-15T05:19:33.443Z,3.03
2019-02-15T05:22:02.809Z,2.50
2019-02-15T05:24:32.219Z,2.70
2019-02-15T05:27:01.624Z,2.73
2019-02-15T05:29:31.083Z,3.10
2019-02-15T05:32:00.404Z,2.87
2019-02-15T05:34:29.857Z,2.70
2019-02-15T05:36:59.256Z,3.43
2019-02-15T05:39:28.652Z,2.90
2019-02-15T05:41:58.064Z,3.63
2019-02-15T05:44:27.498Z,3.43
2019-02-15T05:46:56.820Z,3.90
2019-02-15T05:49:26.166Z,2.90
2019-02-15T05:51:55.571Z,4.10
2019-02-15T05:54:24.978Z,3.23
2019-02-15T05:56:54.328Z,3.53
2019-02-15T05:59:23.698Z,4.60
2019-02-15T06:01:53.025Z,3.73
2019-02-15T06:04:22.354Z,3.33
2019-02-15T06:06:51.727Z,3.10
2019-02-15T06:09:21.092Z,2.93
2019-02-15T06:11:50.498Z,3.20
2019-02-15T06:14:19.813Z,3.13
2019-02-15T06:16:49.187Z,3.17
2019-02-15T06:19:18.542Z,5.03
2019-02-15T06:21:48.138Z,4.57
2019-02-15T06:24:17.457Z,4.67
2019-02-15T06:26:46.811Z,4.23
2019-02-15T06:29:16.168Z,3.30
2019-02-15T06:31:45.487Z,3.20
2019-02-15T06:34:14.861Z,4.40
2019-02-15T06:36:44.135Z,3.87
2019-02-15T06:39:13.491Z,3.90
2019-02-15T06:41:42.812Z,4.10
2019-02-15T06:44:12.459Z,4.40
2019-02-15T06:46:41.800Z,4.20
2019-02-15T06:49:11.215Z,4.60
2019-02-15T06:51:40.660Z,5.70
2019-02-15T06:54:10.017Z,4.50
2019-02-15T06:56:39.420Z,5.33
2019-02-15T06:59:26.115Z,4.90
2019-02-15T07:02:11.091Z,4.37
2019-02-15T07:04:51.259Z,4.30
2019-02-15T07:07:20.583Z,4.33
2019-02-15T07:09:49.922Z,4.83
2019-02-15T07:12:19.385Z,4.03
2019-02-15T07:14:48.806Z,3.50
2019-02-15T07:17:18.158Z,3.80
2019-02-15T07:19:47.487Z,4.20
2019-02-15T07:22:23.118Z,4.00
2019-02-15T07:24:52.520Z,3.43
2019-02-15T07:27:21.961Z,4.30
2019-02-15T07:29:51.329Z,3.77
2019-02-15T07:32:20.689Z,3.80
2019-02-15T07:34:50.003Z,4.20
2019-02-15T07:37:19.418Z,4.10
2019-02-15T07:39:48.847Z,4.27
2019-02-15T07:42:18.204Z,3.67
2019-02-15T07:44:47.546Z,3.63
2019-02-15T07:47:16.936Z,3.73
2019-02-15T07:49:46.236Z,4.13
2019-02-15T07:52:15.579Z,5.10
2019-02-15T07:54:45.200Z,4.87
2019-02-15T07:57:14.528Z,4.07
2019-02-15T07:59:43.848Z,5.03
2019-02-15T08:02:13.179Z,4.93
2019-02-15T08:04:42.502Z,4.00
2019-02-15T08:07:11.873Z,4.23
2019-02-15T08:09:41.217Z,4.77
2019-02-15T08:12:10.545Z,4.70
2019-02-15T08:14:39.904Z,4.30
2019-02-15T08:17:09.209Z,4.33
2019-02-15T08:19:38.560Z,3.60
2019-02-15T08:22:08.278Z,4.03
2019-02-15T08:24:37.612Z,3.53
2019-02-15T08:27:06.981Z,4.73
2019-02-15T08:29:36.343Z,6.30
2019-02-15T08:32:05.703Z,2.40
2019-02-15T08:34:35.144Z,2.60
2019-02-15T08:37:04.533Z,2.90
2019-02-15T08:39:33.937Z,2.93
2019-02-15T08:42:04.626Z,2.20
2019-02-15T08:44:34.061Z,2.37
2019-02-15T08:47:03.415Z,1.70
2019-02-15T08:49:32.732Z,2.40
2019-02-15T08:52:02.085Z,2.20
2019-02-15T08:54:31.477Z,2.40
2019-02-15T08:57:00.838Z,2.40
2019-02-15T08:59:30.244Z,2.43
2019-02-15T09:02:11.782Z,1.87
2019-02-15T09:04:41.186Z,2.30
2019-02-15T09:07:10.642Z,2.47
2019-02-15T09:09:39.996Z,2.67
2019-02-15T09:12:09.352Z,2.67
2019-02-15T09:14:38.672Z,2.37
2019-02-15T09:17:08.065Z,2.90
2019-02-15T09:19:37.475Z,2.83
2019-02-15T09:22:06.840Z,2.70
2019-02-15T09:24:36.171Z,2.63
2019-02-15T09:27:13.003Z,3.20
2019-02-15T09:29:42.304Z,2.70
2019-02-15T09:32:11.696Z,2.60
2019-02-15T09:34:41.089Z,2.13
2019-02-15T09:37:10.489Z,2.43
2019-02-15T09:39:39.848Z,2.80
2019-02-15T09:42:09.202Z,2.30
2019-02-15T09:44:38.577Z,2.30
2019-02-15T09:47:07.944Z,2.70
2019-02-15T09:49:37.286Z,2.30
2019-02-15T09:52:06.677Z,2.77
2019-02-15T09:54:36.000Z,2.33
2019-02-15T09:57:05.356Z,2.50
2019-02-15T09:59:34.702Z,2.03
2019-02-15T10:02:04.000Z,2.67
2019-02-15T10:04:33.333Z,2.20
2019-02-15T10:07:02.663Z,2.63
2019-02-15T10:09:32.025Z,2.70
2019-02-15T10:12:01.403Z,1.97
2019-02-15T10:14:30.688Z,2.53
2019-02-15T10:17:00.012Z,2.33
2019-02-15T10:19:29.351Z,2.50
2019-02-15T10:21:58.664Z,2.63
2019-02-15T10:24:28.039Z,2.70
2019-02-15T10:26:57.373Z,2.77
2019-02-15T10:29:26.761Z,2.80
2019-02-15T10:31:56.102Z,3.20
2019-02-15T10:34:25.500Z,2.80
2019-02-15T10:36:54.796Z,2.40
2019-02-15T10:39:24.130Z,2.50
2019-02-15T10:41:53.434Z,2.73
2019-02-15T10:44:22.767Z,2.40
2019-02-15T10:46:52.137Z,2.73
2019-02-15T10:49:21.977Z,2.67
2019-02-15T10:51:51.267Z,2.30
2019-02-15T10:54:20.570Z,2.70
2019-02-15T10:56:49.919Z,2.43
2019-02-15T10:59:19.281Z,2.40
2019-02-15T11:01:48.588Z,2.40
2019-02-15T11:04:17.929Z,2.70
2019-02-15T11:06:47.281Z,2.63
2019-02-15T11:09:16.574Z,2.10
2019-02-15T11:11:45.996Z,2.50
2019-02-15T11:14:15.379Z,3.00
2019-02-15T11:16:47.305Z,2.97
2019-02-15T11:19:15.763Z,2.90
2019-02-15T11:21:45.111Z,2.50
2019-02-15T11:24:14.491Z,1.87
2019-02-15T11:26:43.812Z,2.67
2019-02-15T11:29:15.321Z,1.83
2019-02-15T11:31:44.683Z,1.93
2019-02-15T11:34:14.036Z,2.37
2019-02-15T11:36:43.433Z,2.10
2019-02-15T11:39:12.900Z,2.60
2019-02-15T11:41:42.280Z,2.17
2019-02-15T11:44:11.648Z,2.30
2019-02-15T11:46:41.065Z,2.67
2019-02-15T11:49:10.396Z,2.20
2019-02-15T11:51:39.731Z,2.70
2019-02-15T11:54:09.064Z,2.23
2019-02-15T11:56:38.472Z,2.30
2019-02-15T11:59:07.809Z,2.70
2019-02-15T12:01:37.141Z,2.47
2019-02-15T12:04:06.957Z,2.60
2019-02-15T12:06:36.337Z,2.20
2019-02-15T12:09:06.776Z,1.43
2019-02-15T12:11:36.170Z,2.70
2019-02-15T12:14:05.479Z,2.70
2019-02-15T12:16:34.762Z,2.53
2019-02-15T12:19:04.159Z,2.30
2019-02-15T12:21:33.524Z,2.47
2019-02-15T12:24:02.828Z,2.40
2019-02-15T12:26:32.169Z,2.10
2019-02-15T12:29:01.571Z,2.70
2019-02-15T12:31:30.892Z,2.17
2019-02-15T12:34:00.217Z,2.23
2019-02-15T12:36:29.532Z,2.00
2019-02-15T12:38:58.911Z,2.03
2019-02-15T12:41:28.222Z,2.37
2019-02-15T12:43:57.597Z,2.23
2019-02-15T12:46:26.907Z,2.30
2019-02-15T12:48:56.264Z,2.20
2019-02-15T12:51:25.596Z,2.23
2019-02-15T12:53:54.923Z,2.10
2019-02-15T12:56:24.243Z,2.40
2019-02-15T12:58:53.676Z,2.03
2019-02-15T13:01:23.012Z,2.10
2019-02-15T13:03:52.390Z,2.00
2019-02-15T13:06:28.479Z,1.70
2019-02-15T13:08:52.819Z,1.80
2019-02-15T13:11:22.177Z,1.80
2019-02-15T13:13:51.515Z,2.03
2019-02-15T13:16:20.807Z,1.83
2019-02-15T13:18:50.238Z,2.20
2019-02-15T13:21:19.589Z,2.03
2019-02-15T13:23:48.898Z,1.93
2019-02-15T13:26:18.378Z,2.23
2019-02-15T13:28:48.096Z,1.70
2019-02-15T13:31:17.515Z,1.87
2019-02-15T13:33:46.949Z,2.10
2019-02-15T13:36:16.267Z,1.60
2019-02-15T13:38:45.589Z,1.80
2019-02-15T13:41:14.920Z,1.97
2019-02-15T13:43:44.267Z,2.17
2019-02-15T13:46:13.997Z,1.87
2019-02-15T13:48:43.362Z,1.60
2019-02-15T13:51:12.938Z,2.20
2019-02-15T13:53:42.311Z,2.10
2019-02-15T13:56:11.720Z,1.77
2019-02-15T13:58:41.080Z,1.67
2019-02-15T14:01:10.521Z,1.43
2019-02-15T14:03:40.177Z,1.63
2019-02-15T14:06:09.581Z,1.57
2019-02-15T14:08:38.920Z,1.27
2019-02-15T14:11:08.283Z,1.40
2019-02-15T14:13:37.773Z,1.77
2019-02-15T14:16:07.144Z,2.00
2019-02-15T14:18:36.428Z,1.70
2019-02-15T14:21:05.754Z,1.77
2019-02-15T14:23:35.167Z,1.60
2019-02-15T14:26:04.523Z,1.70
2019-02-15T14:28:33.858Z,1.23
2019-02-15T14:31:03.199Z,1.20
2019-02-15T14:33:32.562Z,1.23
2019-02-15T14:36:01.979Z,1.30
2019-02-15T14:38:31.572Z,1.27
2019-02-15T14:41:00.886Z,1.50
2019-02-15T14:43:30.234Z,1.33
2019-02-15T14:45:59.591Z,1.20
2019-02-15T14:48:29.029Z,1.33
2019-02-15T14:50:58.486Z,1.40
2019-02-15T14:53:27.828Z,1.40
2019-02-15T14:55:59.080Z,1.70
2019-02-15T14:58:28.429Z,1.80
2019-02-15T15:00:57.795Z,1.30
2019-02-15T15:03:27.196Z,1.27
2019-02-15T15:05:56.547Z,1.30
2019-02-15T15:08:26.354Z,1.60
2019-02-15T15:10:55.673Z,1.10
2019-02-15T15:13:25.083Z,1.63
2019-02-15T15:15:54.432Z,1.50
2019-02-15T15:18:23.853Z,1.83
2019-02-15T15:20:53.207Z,1.50
2019-02-15T15:23:22.567Z,1.40
2019-02-15T15:25:51.986Z,1.60
2019-02-15T15:28:21.344Z,1.60
2019-02-15T15:30:50.748Z,1.60
2019-02-15T15:33:20.117Z,1.73
2019-02-15T15:35:49.509Z,1.47
2019-02-15T15:38:18.924Z,2.17
2019-02-15T15:40:48.315Z,1.20
2019-02-15T15:43:17.672Z,1.80
2019-02-15T15:45:47.035Z,1.50
2019-02-15T15:48:22.493Z,1.60
2019-02-15T15:50:47.512Z,1.30
2019-02-15T15:53:16.974Z,1.37
2019-02-15T15:55:46.383Z,1.40
2019-02-15T15:58:15.729Z,1.50
2019-02-15T16:00:45.086Z,0.90
2019-02-15T16:03:14.387Z,1.80
2019-02-15T16:05:43.739Z,1.80
2019-02-15T16:08:13.071Z,1.50
2019-02-15T16:10:42.481Z,1.37
2019-02-15T16:13:11.879Z,1.47
2019-02-15T16:15:41.241Z,1.53
2019-02-15T16:18:10.639Z,1.70
2019-02-15T16:20:40.073Z,1.40
2019-02-15T16:23:09.487Z,1.40
2019-02-15T16:25:38.870Z,1.73
2019-02-15T16:28:08.298Z,1.40
2019-02-15T16:30:37.665Z,1.37
2019-02-15T16:33:07.045Z,1.10
2019-02-15T16:35:36.418Z,1.67
2019-02-15T16:38:05.886Z,1.53
2019-02-15T16:40:35.309Z,2.63
2019-02-15T16:43:04.762Z,2.83
2019-02-15T16:45:34.282Z,2.23
2019-02-15T16:48:03.721Z,2.17
2019-02-15T16:50:33.072Z,2.70
2019-02-15T16:53:02.414Z,2.70
2019-02-15T16:55:31.788Z,1.83
2019-02-15T16:58:01.147Z,2.77
2019-02-15T17:00:30.447Z,2.17
2019-02-15T17:02:59.835Z,2.47
2019-02-15T17:05:29.135Z,1.80
2019-02-15T17:07:58.496Z,1.77
2019-02-15T17:10:27.800Z,1.73
2019-02-15T17:12:57.192Z,1.50
2019-02-15T17:15:26.516Z,1.97
2019-02-15T17:17:55.977Z,2.07
2019-02-15T17:20:25.398Z,1.77
2019-02-15T17:22:54.780Z,2.10
2019-02-15T17:25:24.135Z,2.00
2019-02-15T17:27:53.606Z,1.77
2019-02-15T17:30:22.984Z,1.57
2019-02-15T17:32:52.360Z,1.90
2019-02-15T17:35:21.731Z,2.40
2019-02-15T17:37:51.032Z,2.17
2019-02-15T17:40:20.374Z,2.33
2019-02-15T17:42:49.693Z,2.10
2019-02-15T17:45:19.060Z,1.83
2019-02-15T17:47:48.378Z,2.50
2019-02-15T17:50:17.763Z,2.50
2019-02-15T17:52:47.098Z,2.30
2019-02-15T17:55:16.502Z,2.17
2019-02-15T17:57:45.943Z,1.57
2019-02-15T18:00:17.172Z,2.57
2019-02-15T18:02:46.485Z,2.60
2019-02-15T18:05:18.597Z,2.47
2019-02-15T18:07:48.958Z,2.07
2019-02-15T18:10:18.409Z,2.20
2019-02-15T18:12:47.815Z,2.43
2019-02-15T18:15:17.254Z,2.03
2019-02-15T18:17:46.598Z,2.33
2019-02-15T18:20:15.990Z,2.33
2019-02-15T18:22:45.409Z,2.63
2019-02-15T18:25:14.774Z,2.33
2019-02-15T18:27:44.147Z,2.03
2019-02-15T18:30:13.545Z,2.27
2019-02-15T18:32:42.948Z,2.50
2019-02-15T18:35:12.237Z,2.27
2019-02-15T18:37:41.646Z,2.17
2019-02-15T18:40:10.968Z,1.97
2019-02-15T18:42:40.364Z,2.10
2019-02-15T18:45:11.065Z,2.00
2019-02-15T18:47:40.444Z,2.27
2019-02-15T18:50:09.974Z,1.80
2019-02-15T18:52:39.310Z,2.20
2019-02-15T18:55:09.134Z,2.67
2019-02-15T18:57:38.689Z,2.30
2019-02-15T19:00:10.033Z,3.20
2019-02-15T19:02:39.444Z,2.90
2019-02-15T19:05:10.109Z,2.83
2019-02-15T19:07:39.456Z,1.83
2019-02-15T19:10:10.114Z,2.40
2019-02-15T19:12:39.501Z,2.37
2019-02-15T19:15:09.777Z,2.27
2019-02-15T19:17:39.124Z,2.33
2019-02-15T19:20:09.787Z,2.00
2019-02-15T19:22:39.111Z,2.10
2019-02-15T19:25:10.014Z,6.50
2019-02-15T19:27:39.359Z,3.40
2019-02-15T19:30:11.246Z,3.03
2019-02-15T19:32:40.629Z,3.40
2019-02-15T19:35:10.410Z,2.10
2019-02-15T19:37:39.760Z,2.40
2019-02-15T19:40:10.346Z,2.43
2019-02-15T19:42:40.568Z,2.87
2019-02-15T19:45:10.557Z,2.70
2019-02-15T19:47:39.901Z,2.53
2019-02-15T19:50:11.451Z,2.13
2019-02-15T19:52:40.991Z,2.70
2019-02-15T19:55:10.656Z,2.30
2019-02-15T19:57:40.016Z,2.00
2019-02-15T20:00:12.543Z,2.37
2019-02-15T20:02:41.919Z,2.30
2019-02-15T20:05:11.370Z,2.60
2019-02-15T20:07:40.718Z,2.70
2019-02-15T20:10:12.492Z,2.40
2019-02-15T20:12:41.882Z,1.90
2019-02-15T20:15:12.317Z,1.93
2019-02-15T20:17:41.658Z,2.13
2019-02-15T20:20:12.051Z,2.20
2019-02-15T20:22:41.497Z,2.43
2019-02-15T20:25:11.186Z,1.87
2019-02-15T20:27:40.584Z,2.40
2019-02-15T20:30:12.631Z,2.50
2019-02-15T20:32:42.022Z,2.70
2019-02-15T20:35:13.494Z,2.70
2019-02-15T20:37:42.944Z,2.23
2019-02-15T20:40:12.474Z,2.60
2019-02-15T20:42:42.004Z,2.50
2019-02-15T20:45:16.309Z,2.00
2019-02-15T20:47:45.733Z,2.17
2019-02-15T20:50:15.208Z,2.20
2019-02-15T20:52:44.550Z,2.70
2019-02-15T20:55:14.808Z,2.20
2019-02-15T20:57:44.189Z,3.47
2019-02-15T21:00:16.232Z,2.93
2019-02-15T21:02:45.643Z,3.03
2019-02-15T21:05:15.069Z,2.93
2019-02-15T21:07:44.496Z,2.67
2019-02-15T21:10:13.885Z,3.10
2019-02-15T21:12:43.313Z,3.17
2019-02-15T21:15:12.883Z,3.90
2019-02-15T21:17:42.239Z,3.40
2019-02-15T21:20:12.062Z,3.33
2019-02-15T21:22:41.386Z,3.53
2019-02-15T21:25:12.165Z,3.70
2019-02-15T21:27:41.549Z,3.57
2019-02-15T21:30:12.888Z,3.03
2019-02-15T21:32:42.271Z,3.63
2019-02-15T21:35:11.609Z,3.70
2019-02-15T21:37:40.935Z,3.93
2019-02-15T21:40:11.798Z,4.00
2019-02-15T21:42:41.174Z,3.40
2019-02-15T21:45:10.916Z,3.80
2019-02-15T21:47:40.247Z,3.40
2019-02-15T21:50:16.715Z,3.30
2019-02-15T21:52:44.083Z,3.77
2019-02-15T21:55:12.097Z,3.23
2019-02-15T21:57:41.457Z,3.70
2019-02-15T22:00:13.057Z,3.37
2019-02-15T22:02:42.400Z,3.07
2019-02-15T22:05:11.728Z,3.40
2019-02-15T22:07:41.082Z,3.47
2019-02-15T22:10:10.409Z,3.90
2019-02-15T22:12:39.781Z,3.60
2019-02-15T22:15:09.837Z,3.60
2019-02-15T22:17:40.149Z,3.40
2019-02-15T22:20:10.641Z,3.57
2019-02-15T22:22:40.021Z,3.10
2019-02-15T22:25:09.405Z,3.50
2019-02-15T22:27:38.712Z,4.27
2019-02-15T22:30:10.076Z,4.00
2019-02-15T22:32:39.420Z,4.30
2019-02-15T22:35:08.812Z,4.20
2019-02-15T22:37:38.240Z,3.90
2019-02-15T22:40:31.042Z,4.07
2019-02-15T22:43:03.238Z,3.93
2019-02-15T22:45:32.621Z,4.30
2019-02-15T22:48:01.960Z,4.00
2019-02-15T22:50:36.147Z,3.80
2019-02-15T22:53:02.342Z,4.37
2019-02-15T22:55:31.669Z,3.80
2019-02-15T22:58:01.013Z,3.53
2019-02-15T23:00:48.116Z,3.90
2019-02-15T23:03:19.035Z,3.63
2019-02-15T23:05:48.371Z,3.87
2019-02-15T23:08:17.688Z,3.63
2019-02-15T23:10:47.012Z,4.17
2019-02-15T23:13:16.434Z,5.07
2019-02-15T23:15:45.713Z,4.13
2019-02-15T23:18:15.100Z,4.70
2019-02-15T23:20:45.547Z,4.33
2019-02-15T23:23:15.147Z,4.37
2019-02-15T23:25:44.506Z,4.30
2019-02-15T23:28:13.871Z,4.47
2019-02-15T23:30:43.188Z,4.50
2019-02-15T23:33:12.567Z,5.23
2019-02-15T23:35:41.867Z,4.70
2019-02-15T23:38:11.235Z,4.23
2019-02-15T23:40:40.548Z,4.60
2019-02-15T23:43:09.917Z,4.33
2019-02-15T23:45:40.272Z,4.20
2019-02-15T23:48:10.398Z,4.43
2019-02-15T23:50:40.090Z,4.20
2019-02-15T23:53:10.303Z,4.80
2019-02-15T23:55:43.540Z,4.30
2019-02-15T23:58:13.884Z,4.30
